YSRI METAR and TAF | Updated Today

YSRI METAR

RAAF Base Richmond

Observation time: 14 min. ago

YSRI 052100Z AUTO 00000KT 9999 // NCD 20/18 Q1018 RF00.0/000.0

Need help? Read our tutorial on how to read METARs or read the parsed version below.

RAAF Base Richmond (YSRI) METAR

  • Weather conditions on Sun, 05 Feb 2023 21:00:00 +0000 (14 min. ago):
  • Present conditions: Dry
  • Clouds: Nil cloud detected
  • Visibility: Greater than 10 km
  • Wind: Calm
  • Temperature: 20 celsius
  • Dew point: 18 celsius
  • Pressure: 1018 millibars
  • Remarks: None


Useful to know...

YSRI TAF

RAAF Base Richmond

TAF YSRI 051708Z 0518/0618 VRB03KT 9999 BKN040 FM060000 04008KT 9999 SCT050 FM060400 08012KT 9999 FEW050 FM061100 VRB03KT 9999 BKN030
Observation time: 4:06 hr. ago
Need help? Read our tutorial on how to read TAFs or read the parsed version below.

Parsed version of TAF for RAAF Base Richmond (YSRI)

  • From 05 February at 18:00 UTC, to day 06 of the month at 18:00 UTC
  • Clouds: Broken sky at 1219 meters
  • Visibility: Greater than 10 km
  • Wind: Variable at 3
  • From day 6 of the month at 00:00 UTC
  • Clouds: Scattered at 1524 meters
  • Visibility: Greater than 10 km
  • Wind: 40 degrees at 8
  • From day 6 of the month at 04:00 UTC
  • Clouds: A few at 1524 meters
  • Visibility: Greater than 10 km
  • Wind: 80 degrees at 12
  • From day 6 of the month at 11:00 UTC
  • Clouds: Broken sky at 914 meters
  • Visibility: Greater than 10 km
  • Wind: Variable at 3